sensor_id;sensor_type;location;lat;lon;timestamp;pressure;altitude;pressure_sealevel;temperature;humidity
28935;BME280;16044;52.726;-2.108;2023-02-13T00:00:50;102485.13;;;6.65;81.31
28935;BME280;16044;52.726;-2.108;2023-02-13T00:03:17;102490.75;;;6.62;81.48
28935;BME280;16044;52.726;-2.108;2023-02-13T00:05:44;102481.91;;;6.60;81.57
28935;BME280;16044;52.726;-2.108;2023-02-13T00:08:11;102483.84;;;6.58;81.56
28935;BME280;16044;52.726;-2.108;2023-02-13T00:10:38;102480.25;;;6.57;81.40
28935;BME280;16044;52.726;-2.108;2023-02-13T00:13:05;102473.25;;;6.55;81.50
28935;BME280;16044;52.726;-2.108;2023-02-13T00:15:32;102468.63;;;6.57;81.38
28935;BME280;16044;52.726;-2.108;2023-02-13T00:18:01;102467.00;;;6.54;81.76
28935;BME280;16044;52.726;-2.108;2023-02-13T00:20:28;102471.22;;;6.58;81.43
28935;BME280;16044;52.726;-2.108;2023-02-13T00:22:55;102474.03;;;6.57;81.50
28935;BME280;16044;52.726;-2.108;2023-02-13T00:25:21;102475.84;;;6.56;81.53
28935;BME280;16044;52.726;-2.108;2023-02-13T00:27:50;102474.13;;;6.55;81.67
28935;BME280;16044;52.726;-2.108;2023-02-13T00:30:17;102482.09;;;6.57;81.59
28935;BME280;16044;52.726;-2.108;2023-02-13T00:32:44;102473.25;;;6.55;81.77
28935;BME280;16044;52.726;-2.108;2023-02-13T00:35:11;102470.47;;;6.56;81.52
28935;BME280;16044;52.726;-2.108;2023-02-13T00:37:38;102477.78;;;6.54;81.62
28935;BME280;16044;52.726;-2.108;2023-02-13T00:40:05;102467.97;;;6.53;81.49
28935;BME280;16044;52.726;-2.108;2023-02-13T00:42:33;102474.22;;;6.54;81.47
28935;BME280;16044;52.726;-2.108;2023-02-13T00:45:00;102469.25;;;6.48;81.79
28935;BME280;16044;52.726;-2.108;2023-02-13T00:47:26;102468.06;;;6.52;81.86
28935;BME280;16044;52.726;-2.108;2023-02-13T00:49:53;102468.28;;;6.49;82.08
28935;BME280;16044;52.726;-2.108;2023-02-13T00:52:20;102465.38;;;6.52;82.20
28935;BME280;16044;52.726;-2.108;2023-02-13T00:54:47;102456.34;;;6.53;82.29
28935;BME280;16044;52.726;-2.108;2023-02-13T00:57:14;102455.34;;;6.54;82.49
28935;BME280;16044;52.726;-2.108;2023-02-13T00:59:40;102446.50;;;6.52;82.71
28935;BME280;16044;52.726;-2.108;2023-02-13T01:02:07;102447.50;;;6.51;82.89
28935;BME280;16044;52.726;-2.108;2023-02-13T01:04:34;102456.75;;;6.47;83.34
28935;BME280;16044;52.726;-2.108;2023-02-13T01:07:01;102456.84;;;6.45;83.49
28935;BME280;16044;52.726;-2.108;2023-02-13T01:09:28;102445.84;;;6.48;83.51
28935;BME280;16044;52.726;-2.108;2023-02-13T01:11:55;102450.19;;;6.51;83.59
28935;BME280;16044;52.726;-2.108;2023-02-13T01:14:21;102446.50;;;6.52;83.87
28935;BME280;16044;52.726;-2.108;2023-02-13T01:16:48;102439.59;;;6.48;84.12
28935;BME280;16044;52.726;-2.108;2023-02-13T01:19:15;102437.00;;;6.46;84.28
28935;BME280;16044;52.726;-2.108;2023-02-13T01:21:43;102441.34;;;6.49;84.35
28935;BME280;16044;52.726;-2.108;2023-02-13T01:24:10;102434.03;;;6.51;84.32
28935;BME280;16044;52.726;-2.108;2023-02-13T01:26:37;102428.63;;;6.51;84.44
28935;BME280;16044;52.726;-2.108;2023-02-13T01:29:05;102421.91;;;6.43;85.09
28935;BME280;16044;52.726;-2.108;2023-02-13T01:31:32;102427.97;;;6.47;84.74
28935;BME280;16044;52.726;-2.108;2023-02-13T01:33:59;102432.28;;;6.50;84.71
28935;BME280;16044;52.726;-2.108;2023-02-13T01:36:26;102429.69;;;6.48;84.92
28935;BME280;16044;52.726;-2.108;2023-02-13T01:38:55;102428.63;;;6.51;84.89
28935;BME280;16044;52.726;-2.108;2023-02-13T01:41:25;102436.72;;;6.51;84.72
28935;BME280;16044;52.726;-2.108;2023-02-13T01:43:55;102427.97;;;6.47;85.06
28935;BME280;16044;52.726;-2.108;2023-02-13T01:46:34;102431.53;;;6.48;85.21
28935;BME280;16044;52.726;-2.108;2023-02-13T01:49:32;102430.56;;;6.49;85.33
28935;BME280;16044;52.726;-2.108;2023-02-13T01:51:59;102434.13;;;6.49;85.29
28935;BME280;16044;52.726;-2.108;2023-02-13T01:54:27;102427.75;;;6.50;85.42
28935;BME280;16044;52.726;-2.108;2023-02-13T01:57:17;102433.34;;;6.47;85.21
28935;BME280;16044;52.726;-2.108;2023-02-13T02:00:01;102428.63;;;6.51;85.33
28935;BME280;16044;52.726;-2.108;2023-02-13T02:02:36;102430.66;;;6.47;85.86
28935;BME280;16044;52.726;-2.108;2023-02-13T02:05:07;102429.81;;;6.47;85.69
28935;BME280;16044;52.726;-2.108;2023-02-13T02:07:34;102445.00;;;6.48;85.82
28935;BME280;16044;52.726;-2.108;2023-02-13T02:10:07;102429.91;;;6.45;86.00
28935;BME280;16044;52.726;-2.108;2023-02-13T02:13:00;102433.47;;;6.46;85.79
28935;BME280;16044;52.726;-2.108;2023-02-13T02:15:32;102439.03;;;6.42;86.10
28935;BME280;16044;52.726;-2.108;2023-02-13T02:17:59;102434.41;;;6.44;86.10
28935;BME280;16044;52.726;-2.108;2023-02-13T02:27:17;102427.59;;;6.39;86.53
28935;BME280;16044;52.726;-2.108;2023-02-13T02:33:53;102426.56;;;6.41;86.35
28935;BME280;16044;52.726;-2.108;2023-02-13T02:36:01;102418.47;;;6.41;86.34
28935;BME280;16044;52.726;-2.108;2023-02-13T02:38:52;102413.84;;;6.43;86.45
28935;BME280;16044;52.726;-2.108;2023-02-13T02:48:10;102411.16;;;6.43;86.07
28935;BME280;16044;52.726;-2.108;2023-02-13T02:54:16;102412.41;;;6.38;86.47
28935;BME280;16044;52.726;-2.108;2023-02-13T02:57:13;102412.41;;;6.38;86.74
28935;BME280;16044;52.726;-2.108;2023-02-13T02:59:41;102400.97;;;6.34;86.65
28935;BME280;16044;52.726;-2.108;2023-02-13T03:02:29;102401.44;;;6.41;86.40
28935;BME280;16044;52.726;-2.108;2023-02-13T03:05:29;102391.94;;;6.35;86.93
28935;BME280;16044;52.726;-2.108;2023-02-13T03:08:16;102393.66;;;6.36;87.13
28935;BME280;16044;52.726;-2.108;2023-02-13T03:11:07;102400.56;;;6.40;86.85
28935;BME280;16044;52.726;-2.108;2023-02-13T03:13:53;102400.47;;;6.42;86.88
28935;BME280;16044;52.726;-2.108;2023-02-13T03:16:23;102397.78;;;6.42;87.00
28935;BME280;16044;52.726;-2.108;2023-02-13T03:19:42;102389.59;;;6.43;86.92
28935;BME280;16044;52.726;-2.108;2023-02-13T03:25:35;102389.03;;;6.38;87.29
28935;BME280;16044;52.726;-2.108;2023-02-13T03:31:57;102389.25;;;6.35;87.46
28935;BME280;16044;52.726;-2.108;2023-02-13T03:34:51;102384.41;;;6.40;87.17
28935;BME280;16044;52.726;-2.108;2023-02-13T03:37:46;102384.50;;;6.39;87.49
28935;BME280;16044;52.726;-2.108;2023-02-13T03:46:26;102383.53;;;6.40;87.52
28935;BME280;16044;52.726;-2.108;2023-02-13T03:48:57;102382.69;;;6.39;87.66
28935;BME280;16044;52.726;-2.108;2023-02-13T03:51:47;102387.84;;;6.42;87.34
28935;BME280;16044;52.726;-2.108;2023-02-13T03:54:18;102388.50;;;6.33;87.72
28935;BME280;16044;52.726;-2.108;2023-02-13T03:57:14;102386.44;;;6.37;87.91
28935;BME280;16044;52.726;-2.108;2023-02-13T04:00:07;102373.84;;;6.37;87.80
28935;BME280;16044;52.726;-2.108;2023-02-13T04:02:43;102379.00;;;6.40;87.71
28935;BME280;16044;52.726;-2.108;2023-02-13T04:05:20;102373.63;;;6.40;87.96
28935;BME280;16044;52.726;-2.108;2023-02-13T04:07:50;102379.00;;;6.40;88.12
28935;BME280;16044;52.726;-2.108;2023-02-13T04:10:18;102380.94;;;6.38;88.23
28935;BME280;16044;52.726;-2.108;2023-02-13T04:12:52;102380.66;;;6.43;87.92
28935;BME280;16044;52.726;-2.108;2023-02-13T04:18:32;102381.41;;;6.45;88.13
28935;BME280;16044;52.726;-2.108;2023-02-13T04:21:02;102377.84;;;6.44;88.06
28935;BME280;16044;52.726;-2.108;2023-02-13T04:23:30;102375.16;;;6.44;88.08
28935;BME280;16044;52.726;-2.108;2023-02-13T04:25:59;102371.69;;;6.42;88.00
28935;BME280;16044;52.726;-2.108;2023-02-13T04:28:28;102375.16;;;6.44;88.45
28935;BME280;16044;52.726;-2.108;2023-02-13T04:30:56;102379.78;;;6.42;88.20
28935;BME280;16044;52.726;-2.108;2023-02-13T04:33:24;102376.88;;;6.46;88.37
28935;BME280;16044;52.726;-2.108;2023-02-13T04:35:51;102371.50;;;6.46;88.22
28935;BME280;16044;52.726;-2.108;2023-02-13T04:38:18;102366.00;;;6.47;88.53
28935;BME280;16044;52.726;-2.108;2023-02-13T04:40:45;102366.31;;;6.42;88.92
28935;BME280;16044;52.726;-2.108;2023-02-13T04:43:12;102368.16;;;6.42;89.07
28935;BME280;16044;52.726;-2.108;2023-02-13T04:45:38;102363.94;;;6.38;89.09
28935;BME280;16044;52.726;-2.108;2023-02-13T04:48:05;102367.94;;;6.45;88.68
28935;BME280;16044;52.726;-2.108;2023-02-13T04:50:32;102359.97;;;6.43;88.91
28935;BME280;16044;52.726;-2.108;2023-02-13T04:52:59;102370.66;;;6.45;88.77
28935;BME280;16044;52.726;-2.108;2023-02-13T04:55:26;102369.66;;;6.46;88.99
28935;BME280;16044;52.726;-2.108;2023-02-13T04:57:54;102367.28;;;6.41;89.20
28935;BME280;16044;52.726;-2.108;2023-02-13T05:00:23;102368.03;;;6.43;89.20
28935;BME280;16044;52.726;-2.108;2023-02-13T05:02:52;102373.44;;;6.43;89.39
28935;BME280;16044;52.726;-2.108;2023-02-13T05:05:19;102370.66;;;6.45;89.16
28935;BME280;16044;52.726;-2.108;2023-02-13T05:07:46;102376.88;;;6.46;89.25
28935;BME280;16044;52.726;-2.108;2023-02-13T05:10:13;102379.78;;;6.42;89.49
28935;BME280;16044;52.726;-2.108;2023-02-13T05:12:40;102380.94;;;6.38;90.02
28935;BME280;16044;52.726;-2.108;2023-02-13T05:15:08;102383.22;;;6.44;89.58
28935;BME280;16044;52.726;-2.108;2023-02-13T05:17:35;102380.66;;;6.43;89.80
28935;BME280;16044;52.726;-2.108;2023-02-13T05:20:02;102372.59;;;6.43;89.65
28935;BME280;16044;52.726;-2.108;2023-02-13T05:22:29;102373.44;;;6.43;89.58
28935;BME280;16044;52.726;-2.108;2023-02-13T05:25:14;102361.34;;;6.36;90.13
28935;BME280;16044;52.726;-2.108;2023-02-13T05:27:41;102367.38;;;6.40;89.85
28935;BME280;16044;52.726;-2.108;2023-02-13T05:30:08;102373.84;;;6.37;90.13
28935;BME280;16044;52.726;-2.108;2023-02-13T05:32:35;102362.00;;;6.40;89.92
28935;BME280;16044;52.726;-2.108;2023-02-13T05:35:04;102360.06;;;6.42;89.85
28935;BME280;16044;52.726;-2.108;2023-02-13T05:37:31;102364.78;;;6.38;90.25
28935;BME280;16044;52.726;-2.108;2023-02-13T05:39:58;102364.78;;;6.38;90.26
28935;BME280;16044;52.726;-2.108;2023-02-13T05:42:25;102357.38;;;6.42;90.13
28935;BME280;16044;52.726;-2.108;2023-02-13T05:44:52;102360.06;;;6.42;89.94
28935;BME280;16044;52.726;-2.108;2023-02-13T05:47:18;102358.34;;;6.41;90.14
28935;BME280;16044;52.726;-2.108;2023-02-13T05:49:45;102363.28;;;6.34;90.54
28935;BME280;16044;52.726;-2.108;2023-02-13T05:52:12;102353.81;;;6.41;89.93
28935;BME280;16044;52.726;-2.108;2023-02-13T05:54:39;102353.06;;;6.39;89.90
28935;BME280;16044;52.726;-2.108;2023-02-13T05:57:06;102357.47;;;6.40;90.06
28935;BME280;16044;52.726;-2.108;2023-02-13T05:59:33;102354.25;;;6.35;90.26
28935;BME280;16044;52.726;-2.108;2023-02-13T06:02:00;102362.09;;;6.38;90.15
28935;BME280;16044;52.726;-2.108;2023-02-13T06:04:27;102361.16;;;6.39;90.13
28935;BME280;16044;52.726;-2.108;2023-02-13T06:06:56;102359.31;;;6.40;89.99
28935;BME280;16044;52.726;-2.108;2023-02-13T06:09:22;102364.78;;;6.38;90.43
28935;BME280;16044;52.726;-2.108;2023-02-13T06:11:49;102363.94;;;6.38;90.17
28935;BME280;16044;52.726;-2.108;2023-02-13T06:14:16;102366.63;;;6.38;90.09
28935;BME280;16044;52.726;-2.108;2023-02-13T06:16:43;102360.50;;;6.36;90.27
28935;BME280;16044;52.726;-2.108;2023-02-13T06:19:10;102356.72;;;6.38;90.02
28935;BME280;16044;52.726;-2.108;2023-02-13T06:21:37;102365.66;;;6.39;89.86
28935;BME280;16044;52.726;-2.108;2023-02-13T06:24:08;102367.81;;;6.34;90.06
28935;BME280;16044;52.726;-2.108;2023-02-13T06:26:35;102363.28;;;6.34;89.90
28935;BME280;16044;52.726;-2.108;2023-02-13T06:29:01;102356.81;;;6.37;89.65
28935;BME280;16044;52.726;-2.108;2023-02-13T06:31:31;102356.19;;;6.33;89.86
28935;BME280;16044;52.726;-2.108;2023-02-13T06:33:57;102350.22;;;6.28;90.16
28935;BME280;16044;52.726;-2.108;2023-02-13T06:36:24;102354.25;;;6.35;89.72
28935;BME280;16044;52.726;-2.108;2023-02-13T06:38:51;102354.44;;;6.32;89.56
28935;BME280;16044;52.726;-2.108;2023-02-13T06:41:18;102347.72;;;6.25;89.98
28935;BME280;16044;52.726;-2.108;2023-02-13T06:43:45;102351.00;;;6.30;89.50
28935;BME280;16044;52.726;-2.108;2023-02-13T06:46:12;102349.25;;;6.29;89.73
28935;BME280;16044;52.726;-2.108;2023-02-13T06:48:39;102347.72;;;6.25;89.92
28935;BME280;16044;52.726;-2.108;2023-02-13T06:51:06;102361.09;;;6.27;89.93
28935;BME280;16044;52.726;-2.108;2023-02-13T06:53:33;102346.69;;;6.28;89.67
28935;BME280;16044;52.726;-2.108;2023-02-13T06:56:03;102350.31;;;6.27;89.57
28935;BME280;16044;52.726;-2.108;2023-02-13T06:58:32;102335.25;;;6.24;89.68
28935;BME280;16044;52.726;-2.108;2023-02-13T07:00:59;102333.31;;;6.26;89.35
28935;BME280;16044;52.726;-2.108;2023-02-13T07:03:26;102333.31;;;6.26;89.49
28935;BME280;16044;52.726;-2.108;2023-02-13T07:05:53;102335.03;;;6.27;89.53
28935;BME280;16044;52.726;-2.108;2023-02-13T07:08:21;102330.06;;;6.21;89.66
28935;BME280;16044;52.726;-2.108;2023-02-13T07:10:48;102336.09;;;6.24;89.56
28935;BME280;16044;52.726;-2.108;2023-02-13T07:13:15;102333.31;;;6.26;89.28
28935;BME280;16044;52.726;-2.108;2023-02-13T07:15:42;102329.72;;;6.25;89.48
28935;BME280;16044;52.726;-2.108;2023-02-13T07:18:09;102320.59;;;6.28;89.40
28935;BME280;16044;52.726;-2.108;2023-02-13T07:20:36;102325.25;;;6.26;89.19
28935;BME280;16044;52.726;-2.108;2023-02-13T07:23:04;102321.66;;;6.25;89.01
28935;BME280;16044;52.726;-2.108;2023-02-13T07:25:32;102327.94;;;6.26;89.10
28935;BME280;16044;52.726;-2.108;2023-02-13T07:28:01;102327.28;;;6.22;89.25
28935;BME280;16044;52.726;-2.108;2023-02-13T07:30:30;102338.91;;;6.23;89.35
28935;BME280;16044;52.726;-2.108;2023-02-13T07:32:59;102336.19;;;6.23;89.17
28935;BME280;16044;52.726;-2.108;2023-02-13T07:35:27;102346.13;;;6.22;89.31
28935;BME280;16044;52.726;-2.108;2023-02-13T07:37:54;102344.28;;;6.23;89.23
28935;BME280;16044;52.726;-2.108;2023-02-13T07:40:21;102345.13;;;6.23;89.33
28935;BME280;16044;52.726;-2.108;2023-02-13T07:42:48;102350.31;;;6.27;89.17
28935;BME280;16044;52.726;-2.108;2023-02-13T07:45:15;102346.97;;;6.23;89.19
28935;BME280;16044;52.726;-2.108;2023-02-13T07:47:42;102355.25;;;6.20;89.32
28935;BME280;16044;52.726;-2.108;2023-02-13T07:50:10;102350.66;;;6.22;89.19
28935;BME280;16044;52.726;-2.108;2023-02-13T07:52:37;102365.06;;;6.21;89.32
28935;BME280;16044;52.726;-2.108;2023-02-13T07:55:05;102360.63;;;6.20;89.38
28935;BME280;16044;52.726;-2.108;2023-02-13T07:57:32;102365.06;;;6.21;89.44
28935;BME280;16044;52.726;-2.108;2023-02-13T08:00:00;102351.28;;;6.25;89.33
28935;BME280;16044;52.726;-2.108;2023-02-13T08:02:27;102359.34;;;6.25;89.07
28935;BME280;16044;52.726;-2.108;2023-02-13T08:04:54;102361.50;;;6.20;89.23
28935;BME280;16044;52.726;-2.108;2023-02-13T08:07:21;102362.56;;;6.18;89.42
28935;BME280;16044;52.726;-2.108;2023-02-13T08:09:48;102349.00;;;6.19;89.32
28935;BME280;16044;52.726;-2.108;2023-02-13T08:12:34;102343.44;;;6.22;89.06
28935;BME280;16044;52.726;-2.108;2023-02-13T08:15:02;102354.19;;;6.22;89.03
28935;BME280;16044;52.726;-2.108;2023-02-13T08:17:30;102352.34;;;6.23;88.90
28935;BME280;16044;52.726;-2.108;2023-02-13T08:19:56;102346.97;;;6.23;88.67
28935;BME280;16044;52.726;-2.108;2023-02-13T08:22:24;102355.16;;;6.21;88.77
28935;BME280;16044;52.726;-2.108;2023-02-13T08:24:51;102359.69;;;6.21;88.67
28935;BME280;16044;52.726;-2.108;2023-02-13T08:27:18;102360.25;;;6.26;88.48
28935;BME280;16044;52.726;-2.108;2023-02-13T08:29:45;102364.13;;;6.22;88.41
28935;BME280;16044;52.726;-2.108;2023-02-13T08:32:14;102361.28;;;6.23;88.40
28935;BME280;16044;52.726;-2.108;2023-02-13T08:34:41;102361.97;;;6.27;88.20
28935;BME280;16044;52.726;-2.108;2023-02-13T08:37:08;102367.91;;;6.32;87.88
28935;BME280;16044;52.726;-2.108;2023-02-13T08:39:35;102361.66;;;6.32;87.47
28935;BME280;16044;52.726;-2.108;2023-02-13T08:42:02;102357.56;;;6.26;87.65
28935;BME280;16044;52.726;-2.108;2023-02-13T08:44:29;102358.09;;;6.31;87.56
28935;BME280;16044;52.726;-2.108;2023-02-13T08:46:56;102359.63;;;6.35;87.28
28935;BME280;16044;52.726;-2.108;2023-02-13T08:49:23;102363.84;;;6.39;87.13
28935;BME280;16044;52.726;-2.108;2023-02-13T08:51:50;102358.34;;;6.41;87.19
28935;BME280;16044;52.726;-2.108;2023-02-13T08:54:17;102355.34;;;6.46;87.01
28935;BME280;16044;52.726;-2.108;2023-02-13T08:56:44;102361.47;;;6.48;86.84
28935;BME280;16044;52.726;-2.108;2023-02-13T08:59:11;102353.41;;;6.48;86.92
28935;BME280;16044;52.726;-2.108;2023-02-13T09:01:37;102357.50;;;6.53;86.97
28935;BME280;16044;52.726;-2.108;2023-02-13T09:04:04;102352.97;;;6.54;86.80
28935;BME280;16044;52.726;-2.108;2023-02-13T09:06:31;102355.38;;;6.58;85.95
28935;BME280;16044;52.726;-2.108;2023-02-13T09:08:58;102358.81;;;6.60;85.94
28935;BME280;16044;52.726;-2.108;2023-02-13T09:11:25;102353.34;;;6.62;85.69
28935;BME280;16044;52.726;-2.108;2023-02-13T09:13:52;102350.22;;;6.68;84.75
28935;BME280;16044;52.726;-2.108;2023-02-13T09:16:19;102352.16;;;6.66;84.92
28935;BME280;16044;52.726;-2.108;2023-02-13T09:18:47;102344.06;;;6.66;84.61
28935;BME280;16044;52.726;-2.108;2023-02-13T09:21:16;102338.34;;;6.71;84.38
28935;BME280;16044;52.726;-2.108;2023-02-13T09:23:43;102338.66;;;6.66;84.18
28935;BME280;16044;52.726;-2.108;2023-02-13T09:26:13;102344.38;;;6.74;83.96
28935;BME280;16044;52.726;-2.108;2023-02-13T09:28:42;102341.81;;;6.86;83.29
28935;BME280;16044;52.726;-2.108;2023-02-13T09:31:14;102345.81;;;6.93;83.47
28935;BME280;16044;52.726;-2.108;2023-02-13T09:33:44;102346.25;;;6.99;83.25
28935;BME280;16044;52.726;-2.108;2023-02-13T09:36:13;102348.19;;;7.10;83.18
28935;BME280;16044;52.726;-2.108;2023-02-13T09:38:42;102351.22;;;7.18;81.54
28935;BME280;16044;52.726;-2.108;2023-02-13T09:41:18;102348.50;;;7.18;80.82
28935;BME280;16044;52.726;-2.108;2023-02-13T09:46:38;102351.22;;;7.18;81.29
28935;BME280;16044;52.726;-2.108;2023-02-13T09:49:14;102359.31;;;7.18;80.88
28935;BME280;16044;52.726;-2.108;2023-02-13T09:51:44;102353.03;;;7.18;80.75
28935;BME280;16044;52.726;-2.108;2023-02-13T09:54:14;102352.47;;;7.26;80.17
28935;BME280;16044;52.726;-2.108;2023-02-13T09:56:53;102357.00;;;7.25;79.81
28935;BME280;16044;52.726;-2.108;2023-02-13T10:13:41;102333.50;;;7.27;79.08
28935;BME280;16044;52.726;-2.108;2023-02-13T10:16:24;102332.63;;;7.27;79.33
28935;BME280;16044;52.726;-2.108;2023-02-13T10:18:59;102330.13;;;7.36;79.38
28935;BME280;16044;52.726;-2.108;2023-02-13T10:21:36;102328.84;;;7.42;79.26
28935;BME280;16044;52.726;-2.108;2023-02-13T10:24:15;102335.50;;;7.49;78.65
28935;BME280;16044;52.726;-2.108;2023-02-13T10:27:27;102326.44;;;7.50;78.12
28935;BME280;16044;52.726;-2.108;2023-02-13T10:30:07;102332.03;;;7.60;78.09
28935;BME280;16044;52.726;-2.108;2023-02-13T10:36:00;102329.44;;;7.71;77.47
28935;BME280;16044;52.726;-2.108;2023-02-13T10:38:33;102337.38;;;7.73;76.90
28935;BME280;16044;52.726;-2.108;2023-02-13T10:50:32;102324.38;;;7.91;76.67
28935;BME280;16044;52.726;-2.108;2023-02-13T10:55:54;102328.22;;;7.99;76.56
28935;BME280;16044;52.726;-2.108;2023-02-13T10:58:38;102333.19;;;8.06;76.50
28935;BME280;16044;52.726;-2.108;2023-02-13T11:01:56;102327.53;;;8.09;76.16
28935;BME280;16044;52.726;-2.108;2023-02-13T11:04:28;102312.53;;;8.05;75.64
28935;BME280;16044;52.726;-2.108;2023-02-13T11:07:01;102315.69;;;7.98;75.19
28935;BME280;16044;52.726;-2.108;2023-02-13T11:09:35;102323.53;;;7.90;75.36
28935;BME280;16044;52.726;-2.108;2023-02-13T11:12:28;102318.81;;;7.81;75.66
28935;BME280;16044;52.726;-2.108;2023-02-13T11:15:05;102319.03;;;7.78;75.95
28935;BME280;16044;52.726;-2.108;2023-02-13T11:17:36;102319.03;;;7.78;76.08
28935;BME280;16044;52.726;-2.108;2023-02-13T11:20:21;102325.16;;;7.80;76.28
28935;BME280;16044;52.726;-2.108;2023-02-13T11:22:54;102326.78;;;7.83;75.96
28935;BME280;16044;52.726;-2.108;2023-02-13T11:25:26;102324.41;;;7.78;75.94
28935;BME280;16044;52.726;-2.108;2023-02-13T11:28:09;102323.09;;;7.84;75.88
28935;BME280;16044;52.726;-2.108;2023-02-13T11:30:43;102318.56;;;7.84;75.88
28935;BME280;16044;52.726;-2.108;2023-02-13T11:35:44;102315.28;;;7.92;75.56
28935;BME280;16044;52.726;-2.108;2023-02-13T11:40:43;102307.50;;;8.00;74.83
28935;BME280;16044;52.726;-2.108;2023-02-13T11:43:25;102306.59;;;7.99;74.77
28935;BME280;16044;52.726;-2.108;2023-02-13T11:46:01;102290.81;;;8.06;74.79
28935;BME280;16044;52.726;-2.108;2023-02-13T11:51:38;102287.41;;;8.15;74.53
28935;BME280;16044;52.726;-2.108;2023-02-13T11:57:31;102280.81;;;8.19;74.30
28935;BME280;16044;52.726;-2.108;2023-02-13T12:00:25;102283.38;;;8.21;73.91
28935;BME280;16044;52.726;-2.108;2023-02-13T12:02:54;102283.38;;;8.21;73.85
28935;BME280;16044;52.726;-2.108;2023-02-13T12:05:26;102275.75;;;8.15;73.99
28935;BME280;16044;52.726;-2.108;2023-02-13T12:08:00;102276.13;;;8.22;73.91
28935;BME280;16044;52.726;-2.108;2023-02-13T12:10:30;102275.19;;;8.23;73.94
28935;BME280;16044;52.726;-2.108;2023-02-13T12:15:39;102273.31;;;8.23;73.84
28935;BME280;16044;52.726;-2.108;2023-02-13T12:18:34;102267.94;;;8.23;73.62
28935;BME280;16044;52.726;-2.108;2023-02-13T12:30:11;102268.19;;;8.31;73.74
28935;BME280;16044;52.726;-2.108;2023-02-13T12:35:48;102267.22;;;8.32;73.47
28935;BME280;16044;52.726;-2.108;2023-02-13T12:41:40;102262.56;;;8.34;72.86
28935;BME280;16044;52.726;-2.108;2023-02-13T12:44:37;102257.78;;;8.38;73.12
28935;BME280;16044;52.726;-2.108;2023-02-13T13:04:44;102241.97;;;8.45;72.69
28935;BME280;16044;52.726;-2.108;2023-02-13T13:13:46;102227.84;;;8.52;72.17
28935;BME280;16044;52.726;-2.108;2023-02-13T13:22:47;102235.13;;;8.63;72.38
28935;BME280;16044;52.726;-2.108;2023-02-13T13:25:24;102224.31;;;8.63;72.22
28935;BME280;16044;52.726;-2.108;2023-02-13T13:28:23;102224.94;;;8.67;71.76
28935;BME280;16044;52.726;-2.108;2023-02-13T13:30:53;102217.56;;;8.69;71.58
28935;BME280;16044;52.726;-2.108;2023-02-13T13:33:23;102225.78;;;8.67;71.41
28935;BME280;16044;52.726;-2.108;2023-02-13T13:36:05;102217.66;;;8.67;71.08
28935;BME280;16044;52.726;-2.108;2023-02-13T13:42:08;102214.75;;;8.70;71.70
28935;BME280;16044;52.726;-2.108;2023-02-13T13:50:02;102208.22;;;8.73;71.33
28935;BME280;16044;52.726;-2.108;2023-02-13T13:52:35;102198.00;;;8.76;71.06
28935;BME280;16044;52.726;-2.108;2023-02-13T13:58:40;102185.72;;;8.72;71.17
28935;BME280;16044;52.726;-2.108;2023-02-13T14:01:29;102182.28;;;8.70;70.55
28935;BME280;16044;52.726;-2.108;2023-02-13T14:09:41;102171.47;;;8.70;70.46
28935;BME280;16044;52.726;-2.108;2023-02-13T14:12:44;102162.38;;;8.71;70.56
28935;BME280;16044;52.726;-2.108;2023-02-13T14:20:40;102164.00;;;8.74;70.27
28935;BME280;16044;52.726;-2.108;2023-02-13T14:26:27;102162.63;;;8.80;70.87
28935;BME280;16044;52.726;-2.108;2023-02-13T14:34:35;102150.59;;;8.84;70.79
28935;BME280;16044;52.726;-2.108;2023-02-13T14:39:38;102153.16;;;8.85;70.74
28935;BME280;16044;52.726;-2.108;2023-02-13T14:42:27;102156.72;;;8.86;70.50
28935;BME280;16044;52.726;-2.108;2023-02-13T14:44:57;102159.31;;;8.87;70.75
28935;BME280;16044;52.726;-2.108;2023-02-13T14:47:27;102149.34;;;8.88;70.88
28935;BME280;16044;52.726;-2.108;2023-02-13T14:50:00;102154.50;;;8.91;70.63
28935;BME280;16044;52.726;-2.108;2023-02-13T14:52:34;102151.06;;;8.89;70.93
28935;BME280;16044;52.726;-2.108;2023-02-13T14:55:43;102138.28;;;8.91;70.59
28935;BME280;16044;52.726;-2.108;2023-02-13T14:58:15;102139.75;;;8.95;70.80
28935;BME280;16044;52.726;-2.108;2023-02-13T15:01:01;102136.06;;;8.96;70.77
28935;BME280;16044;52.726;-2.108;2023-02-13T15:06:10;102138.91;;;8.94;70.09
28935;BME280;16044;52.726;-2.108;2023-02-13T15:08:46;102145.41;;;8.92;70.13
28935;BME280;16044;52.726;-2.108;2023-02-13T15:11:39;102146.28;;;8.92;70.04
28935;BME280;16044;52.726;-2.108;2023-02-13T15:14:15;102138.28;;;8.91;70.49
28935;BME280;16044;52.726;-2.108;2023-02-13T15:17:19;102127.81;;;8.86;70.30
28935;BME280;16044;52.726;-2.108;2023-02-13T15:19:54;102121.31;;;8.89;70.45
28935;BME280;16044;52.726;-2.108;2023-02-13T15:22:32;102125.28;;;8.85;70.60
28935;BME280;16044;52.726;-2.108;2023-02-13T15:25:02;102130.06;;;8.81;70.76
28935;BME280;16044;52.726;-2.108;2023-02-13T15:27:32;102122.06;;;8.80;70.55
28935;BME280;16044;52.726;-2.108;2023-02-13T15:30:19;102126.13;;;8.74;70.65
28935;BME280;16044;52.726;-2.108;2023-02-13T15:32:56;102130.94;;;8.70;70.89
28935;BME280;16044;52.726;-2.108;2023-02-13T15:35:34;102123.06;;;8.67;71.10
28935;BME280;16044;52.726;-2.108;2023-02-13T15:38:36;102131.66;;;8.61;71.48
28935;BME280;16044;52.726;-2.108;2023-02-13T15:41:20;102123.56;;;8.61;71.70
28935;BME280;16044;52.726;-2.108;2023-02-13T15:43:52;102121.84;;;8.60;71.46
28935;BME280;16044;52.726;-2.108;2023-02-13T15:46:30;102116.81;;;8.55;71.71
28935;BME280;16044;52.726;-2.108;2023-02-13T15:49:03;102123.06;;;8.56;71.79
28935;BME280;16044;52.726;-2.108;2023-02-13T15:51:33;102126.03;;;8.53;72.05
28935;BME280;16044;52.726;-2.108;2023-02-13T15:54:04;102126.03;;;8.53;72.08
28935;BME280;16044;52.726;-2.108;2023-02-13T15:56:32;102121.97;;;8.47;72.01
28935;BME280;16044;52.726;-2.108;2023-02-13T15:59:02;102123.94;;;8.45;72.12
28935;BME280;16044;52.726;-2.108;2023-02-13T16:01:29;102129.47;;;8.44;72.17
28935;BME280;16044;52.726;-2.108;2023-02-13T16:04:02;102125.25;;;8.39;71.87